Time;durP1;ratioP1;P1;durP2;ratioP2;P2;SDS_P1;SDS_P2;PMS_P1;PMS_P2;Temp;Humidity;BMP_temperature;BMP_pressure;BME280_temperature;BME280_humidity;BME280_pressure;Samples;Min_cycle;Max_cycle;Signal;HPM_P1;HPM_P2
2023/04/09 00:00:18;;;;;;;75.90;46.00;;;;;;;4.65;71.02;101864.09;107592;1251;111168;-64
2023/04/09 00:03:06;;;;;;;68.70;44.10;;;;;;;4.58;70.59;101862.61;107641;1250;109997;-65
2023/04/09 00:05:39;;;;;;;78.40;48.80;;;;;;;4.52;70.45;101863.57;107638;1251;97819;-64
2023/04/09 00:08:11;;;;;;;72.90;46.60;;;;;;;4.49;70.55;101864.80;107657;1250;97957;-64
2023/04/09 00:10:39;;;;;;;70.30;44.80;;;;;;;4.45;70.63;101863.57;107675;1251;111925;-65
2023/04/09 00:13:08;;;;;;;70.90;48.00;;;;;;;4.39;70.68;101864.73;107845;1251;110707;-64
2023/04/09 00:15:37;;;;;;;71.40;46.20;;;;;;;4.34;70.60;101865.64;107978;1250;107904;-64
2023/04/09 00:18:07;;;;;;;74.70;47.80;;;;;;;4.29;70.63;101865.52;107846;1247;97862;-64
2023/04/09 00:20:35;;;;;;;71.40;48.10;;;;;;;4.26;70.55;101866.55;108096;1247;97806;-63
2023/04/09 00:23:04;;;;;;;73.60;47.90;;;;;;;4.22;70.33;101867.77;107821;1251;111339;-64
2023/04/09 00:25:33;;;;;;;79.50;46.70;;;;;;;4.15;70.57;101866.84;107710;1251;110019;-65
2023/04/09 00:28:02;;;;;;;71.60;46.30;;;;;;;4.09;70.62;101861.94;107641;1253;107927;-64
2023/04/09 00:30:30;;;;;;;73.90;47.10;;;;;;;4.05;70.39;101863.54;107675;1251;97858;-64
2023/04/09 00:32:59;;;;;;;73.40;48.10;;;;;;;4.01;70.53;101866.94;107773;1251;97687;-65
2023/04/09 00:35:28;;;;;;;68.50;46.90;;;;;;;3.97;70.39;101867.63;107793;1256;112191;-65
2023/04/09 00:37:56;;;;;;;74.50;47.60;;;;;;;3.94;70.57;101868.27;107705;1249;109530;-64
2023/04/09 00:40:35;;;;;;;76.10;48.10;;;;;;;3.92;70.59;101863.73;107599;1252;107144;-64
2023/04/09 00:43:04;;;;;;;65.60;46.00;;;;;;;3.90;70.86;101864.19;107664;1250;97802;-64
2023/04/09 00:45:36;;;;;;;77.80;51.60;;;;;;;3.88;71.02;101865.17;107737;1251;98376;-63
2023/04/09 00:48:09;;;;;;;77.40;48.60;;;;;;;3.83;71.20;101865.02;107696;1251;111778;-64
2023/04/09 00:50:38;;;;;;;76.70;49.50;;;;;;;3.80;70.79;101866.73;107815;1250;109715;-64
2023/04/09 00:53:06;;;;;;;72.60;47.70;;;;;;;3.78;70.94;101864.52;107765;1251;109736;-66
2023/04/09 00:55:35;;;;;;;76.80;46.50;;;;;;;3.79;71.09;101862.00;107653;1253;97803;-64
2023/04/09 00:58:04;;;;;;;75.10;45.20;;;;;;;3.78;71.45;101861.35;107694;1251;97711;-65
2023/04/09 01:00:32;;;;;;;71.70;45.10;;;;;;;3.78;72.01;101862.92;107674;1251;111690;-63
2023/04/09 01:03:02;;;;;;;69.00;45.60;;;;;;;3.80;71.81;101863.02;107729;1251;109804;-65
2023/04/09 01:05:45;;;;;;;72.50;46.20;;;;;;;3.83;72.14;101864.86;107657;1249;107659;-64
2023/04/09 01:09:01;;;;;;;71.20;45.20;;;;;;;3.86;72.19;101861.70;107613;1250;97812;-65
2023/04/09 01:11:48;;;;;;;74.00;45.30;;;;;;;3.91;72.46;101861.50;107663;1251;97806;-65
2023/04/09 01:14:44;;;;;;;72.80;44.20;;;;;;;3.94;72.57;101857.26;107583;1251;111811;-64
2023/04/09 01:17:25;;;;;;;71.00;45.80;;;;;;;4.01;73.01;101858.20;107765;1251;109591;-65
2023/04/09 01:20:03;;;;;;;74.10;45.00;;;;;;;4.08;72.95;101854.18;107902;1249;108261;-64
2023/04/09 01:22:41;;;;;;;75.30;43.60;;;;;;;4.13;73.01;101856.44;107684;1250;97815;-66
2023/04/09 01:25:53;;;;;;;72.00;44.80;;;;;;;4.16;72.80;101849.58;107735;1250;97712;-64
2023/04/09 01:28:31;;;;;;;72.80;46.30;;;;;;;4.23;73.22;101851.02;107487;1251;112006;-63
2023/04/09 01:31:26;;;;;;;65.30;42.20;;;;;;;4.27;72.98;101853.73;107731;1248;110152;-65
2023/04/09 01:34:00;;;;;;;69.50;45.70;;;;;;;4.21;72.41;101854.84;107856;1248;109487;-64
2023/04/09 01:36:31;;;;;;;69.60;44.50;;;;;;;4.22;72.48;101856.40;107677;1250;97819;-65
2023/04/09 01:39:01;;;;;;;67.90;43.20;;;;;;;4.27;72.67;101859.75;107726;1251;97836;-64
2023/04/09 01:41:32;;;;;;;68.00;41.60;;;;;;;4.28;72.83;101857.55;107703;1250;110904;-64
2023/04/09 01:44:02;;;;;;;67.40;43.60;;;;;;;4.23;72.54;101855.66;107625;1250;108853;-65
2023/04/09 01:46:33;;;;;;;65.90;42.70;;;;;;;4.22;72.63;101855.52;107623;1250;108691;-65
2023/04/09 01:49:03;;;;;;;67.20;41.90;;;;;;;4.24;72.65;101853.85;107666;1250;97702;-64
2023/04/09 01:51:32;;;;;;;66.10;44.40;;;;;;;4.26;72.85;101855.36;107722;1250;98449;-64
2023/04/09 01:54:01;;;;;;;65.50;43.20;;;;;;;4.27;72.80;101853.52;107709;1249;110909;-64
2023/04/09 01:56:43;;;;;;;70.50;46.80;;;;;;;4.23;72.33;101850.68;107752;1250;109716;-65
2023/04/09 01:59:12;;;;;;;81.00;47.80;;;;;;;4.20;72.26;101848.52;107781;1250;108127;-65
2023/04/09 02:01:46;;;;;;;75.50;47.60;;;;;;;4.14;72.05;101846.48;107775;1251;97799;-64
2023/04/09 02:04:28;;;;;;;75.50;49.30;;;;;;;4.11;72.31;101846.23;107684;1250;97835;-64
2023/04/09 02:07:00;;;;;;;75.50;49.40;;;;;;;4.06;72.38;101844.14;107672;1250;111352;-66
2023/04/09 02:09:30;;;;;;;79.30;51.60;;;;;;;4.01;71.99;101846.69;107767;1249;109737;-65
2023/04/09 02:12:02;;;;;;;82.70;54.00;;;;;;;3.95;72.25;101847.11;107744;1250;107519;-64
2023/04/09 02:14:36;;;;;;;81.40;51.10;;;;;;;3.93;72.23;101848.62;107606;1250;97836;-64
2023/04/09 02:17:05;;;;;;;82.10;52.50;;;;;;;3.90;72.08;101848.91;107693;1251;97801;-65
2023/04/09 02:19:44;;;;;;;77.60;50.10;;;;;;;3.85;72.22;101852.33;107926;1248;109711;-65
2023/04/09 02:22:16;;;;;;;87.20;51.30;;;;;;;3.80;72.28;101851.67;107776;1250;109148;-64
2023/04/09 02:24:45;;;;;;;90.40;54.20;;;;;;;3.74;72.22;101850.13;107640;1250;107995;-65
2023/04/09 02:27:13;;;;;;;77.90;52.00;;;;;;;3.71;72.65;101850.46;107781;1250;97902;-65
2023/04/09 02:29:42;;;;;;;78.10;49.90;;;;;;;3.69;72.34;101851.60;107947;1249;97700;-65
2023/04/09 02:32:12;;;;;;;82.00;49.80;;;;;;;3.68;72.52;101853.61;107937;1251;111681;-65
2023/04/09 02:34:41;;;;;;;82.70;51.50;;;;;;;3.65;72.36;101853.71;107655;1251;109556;-64
2023/04/09 02:37:09;;;;;;;85.40;50.90;;;;;;;3.63;72.51;101855.73;107936;1249;107669;-64
2023/04/09 02:39:38;;;;;;;80.80;53.70;;;;;;;3.60;72.42;101858.19;107645;1249;97818;-64
2023/04/09 02:42:06;;;;;;;86.30;53.00;;;;;;;3.57;72.45;101858.46;107825;1251;98385;-65
2023/04/09 02:44:35;;;;;;;85.20;54.20;;;;;;;3.57;72.45;101860.44;107705;1250;112634;-66
2023/04/09 02:47:04;;;;;;;83.00;51.10;;;;;;;3.55;72.59;101858.91;107713;1252;110888;-65
2023/04/09 02:49:33;;;;;;;80.20;52.40;;;;;;;3.54;72.81;101858.27;107698;1250;107227;-65
2023/04/09 02:52:02;;;;;;;85.50;54.00;;;;;;;3.55;73.14;101859.08;107715;1250;97919;-65
2023/04/09 02:54:33;;;;;;;76.60;50.20;;;;;;;3.59;73.52;101862.14;107657;1250;97685;-64
2023/04/09 02:57:02;;;;;;;79.60;50.30;;;;;;;3.62;73.57;101863.08;107740;1250;111350;-64
2023/04/09 02:59:31;;;;;;;80.00;50.50;;;;;;;3.65;73.81;101864.89;107627;1251;109643;-64
2023/04/09 03:02:01;;;;;;;72.90;47.00;;;;;;;3.68;74.24;101861.58;107665;1251;107087;-65
2023/04/09 03:04:29;;;;;;;78.90;48.20;;;;;;;3.71;74.17;101862.69;107747;1250;97890;-64
2023/04/09 03:06:57;;;;;;;76.50;47.80;;;;;;;3.76;74.14;101864.96;107772;1256;97760;-64
2023/04/09 03:09:26;;;;;;;75.70;47.10;;;;;;;3.77;74.32;101864.21;107619;1250;112310;-66
2023/04/09 03:11:56;;;;;;;80.50;50.00;;;;;;;3.82;74.38;101867.37;107618;1250;109725;-63
2023/04/09 03:14:25;;;;;;;78.00;49.90;;;;;;;3.86;74.52;101867.55;107683;1251;107650;-64
2023/04/09 03:16:54;;;;;;;85.50;50.10;;;;;;;3.92;74.71;101870.14;107699;1251;97692;-65
2023/04/09 03:19:23;;;;;;;74.30;46.60;;;;;;;3.97;74.95;101870.80;107855;1248;97905;-65
2023/04/09 03:21:51;;;;;;;70.90;45.90;;;;;;;4.00;74.74;101869.25;107903;1250;112355;-63
2023/04/09 03:24:22;;;;;;;71.00;46.60;;;;;;;4.01;74.43;101870.10;107636;1250;109788;-64
2023/04/09 03:26:51;;;;;;;74.20;46.10;;;;;;;4.03;74.52;101872.32;107680;1249;108039;-64
2023/04/09 03:29:19;;;;;;;72.90;45.10;;;;;;;4.06;74.39;101870.25;107912;1249;97889;-64
2023/04/09 03:31:48;;;;;;;74.70;45.10;;;;;;;4.08;74.52;101872.45;107950;1248;97898;-66
2023/04/09 03:34:17;;;;;;;73.00;48.20;;;;;;;4.11;74.47;101876.23;107615;1248;111910;-64
2023/04/09 03:36:51;;;;;;;69.70;46.50;;;;;;;4.13;74.39;101876.73;107596;1250;109532;-64
2023/04/09 03:39:29;;;;;;;76.00;46.40;;;;;;;4.12;74.26;101878.36;107655;1251;108039;-63
2023/04/09 03:41:58;;;;;;;71.20;46.00;;;;;;;4.09;74.50;101881.13;107769;1250;97820;-63
2023/04/09 03:44:29;;;;;;;74.50;49.90;;;;;;;4.07;74.30;101882.61;107664;1250;97864;-65
2023/04/09 03:47:06;;;;;;;83.50;51.00;;;;;;;4.06;74.31;101886.59;107674;1250;112311;-67
2023/04/09 03:49:35;;;;;;;81.00;53.40;;;;;;;4.04;73.98;101887.19;107634;1250;109587;-65
2023/04/09 03:52:25;;;;;;;77.20;50.00;;;;;;;4.00;73.82;101892.35;107664;1250;107999;-64
2023/04/09 03:55:06;;;;;;;72.20;47.40;;;;;;;3.95;73.62;101893.08;107786;1249;97794;-65
2023/04/09 03:57:36;;;;;;;77.40;50.10;;;;;;;3.89;73.44;101894.73;107763;1250;97813;-64
2023/04/09 04:00:08;;;;;;;81.40;50.20;;;;;;;3.86;73.53;101896.33;107741;1250;111003;-65
2023/04/09 04:02:51;;;;;;;87.40;54.90;;;;;;;3.82;73.60;101900.36;107729;1250;109283;-63
2023/04/09 04:05:30;;;;;;;83.90;51.80;;;;;;;3.80;73.65;101902.61;107695;1251;107676;-63
2023/04/09 04:07:59;;;;;;;89.10;54.40;;;;;;;3.78;73.61;101900.19;107659;1253;98616;-66
2023/04/09 04:10:28;;;;;;;90.20;57.90;;;;;;;3.78;73.56;101905.16;107724;1249;97886;-65
2023/04/09 04:12:57;;;;;;;90.60;54.90;;;;;;;3.77;73.45;101904.30;107690;1250;111896;-64
2023/04/09 04:15:42;;;;;;;91.70;58.60;;;;;;;3.76;73.41;101904.55;107856;1251;108921;-65
2023/04/09 04:18:11;;;;;;;92.40;59.30;;;;;;;3.77;73.66;101906.64;107679;1252;108326;-65
2023/04/09 04:20:53;;;;;;;98.30;60.60;;;;;;;3.79;73.68;101908.13;107782;1250;97794;-66
2023/04/09 04:23:30;;;;;;;93.40;60.30;;;;;;;3.82;73.84;101909.77;107750;1250;98367;-65
2023/04/09 04:26:09;;;;;;;100.20;61.20;;;;;;;3.86;73.79;101909.45;107731;1250;111526;-64
2023/04/09 04:28:39;;;;;;;92.40;58.50;;;;;;;3.90;73.84;101909.09;107725;1250;109842;-63
2023/04/09 04:31:11;;;;;;;90.70;57.00;;;;;;;3.94;73.99;101913.20;107726;1250;106926;-64
2023/04/09 04:33:41;;;;;;;83.70;54.00;;;;;;;3.98;74.34;101912.14;107799;1250;97913;-64
2023/04/09 04:36:15;;;;;;;86.40;54.90;;;;;;;4.02;74.22;101911.42;107681;1250;98321;-64
2023/04/09 04:38:48;;;;;;;89.40;54.00;;;;;;;4.10;74.55;101912.70;107714;1251;111754;-65
2023/04/09 04:41:23;;;;;;;86.90;55.90;;;;;;;4.19;74.71;101914.09;107728;1253;109917;-64
2023/04/09 04:43:57;;;;;;;86.90;54.30;;;;;;;4.27;74.73;101919.40;107674;1250;108730;-64
2023/04/09 04:46:26;;;;;;;87.90;53.70;;;;;;;4.39;75.14;101920.32;107764;1250;97817;-64
2023/04/09 04:48:55;;;;;;;84.30;52.50;;;;;;;4.50;75.38;101921.08;107782;1250;98498;-64
2023/04/09 04:51:23;;;;;;;84.10;53.40;;;;;;;4.58;75.49;101922.49;107686;1251;112996;-65
2023/04/09 04:54:05;;;;;;;85.20;52.20;;;;;;;4.67;75.49;101919.42;107748;1249;109070;-64
2023/04/09 04:56:33;;;;;;;84.50;53.10;;;;;;;4.79;75.42;101921.04;107628;1251;108540;-65
2023/04/09 04:59:06;;;;;;;83.30;52.40;;;;;;;4.91;75.12;101923.70;107743;1250;97823;-65
2023/04/09 05:01:47;;;;;;;86.50;50.80;;;;;;;4.98;74.90;101923.16;107760;1250;97959;-63
2023/04/09 05:04:16;;;;;;;85.50;51.60;;;;;;;5.06;74.77;101927.80;107767;1250;110072;-65
2023/04/09 05:06:44;;;;;;;85.60;51.40;;;;;;;5.14;74.94;101926.52;107719;1250;109623;-65
2023/04/09 05:09:17;;;;;;;79.70;50.00;;;;;;;5.21;74.74;101927.77;107640;1253;107747;-63
2023/04/09 05:11:58;;;;;;;80.90;50.70;;;;;;;5.29;74.55;101928.31;107699;1250;97805;-64
2023/04/09 05:14:29;;;;;;;84.30;53.60;;;;;;;5.33;74.43;101931.14;107691;1249;98369;-66
2023/04/09 05:16:58;;;;;;;87.40;54.80;;;;;;;5.42;74.38;101934.25;107741;1250;111929;-65
2023/04/09 05:19:31;;;;;;;74.50;49.10;;;;;;;5.45;74.03;101934.85;107743;1250;109809;-64
2023/04/09 05:22:02;;;;;;;76.70;51.10;;;;;;;5.43;73.29;101935.27;107656;1250;108682;-65
2023/04/09 05:24:30;;;;;;;81.20;52.40;;;;;;;5.42;73.01;101934.79;107580;1249;97886;-64
2023/04/09 05:27:00;;;;;;;77.00;50.70;;;;;;;5.38;73.03;101936.05;107710;1250;97803;-67
2023/04/09 05:29:28;;;;;;;84.80;55.40;;;;;;;5.27;73.02;101933.36;107931;1249;111630;-68
2023/04/09 05:31:57;;;;;;;88.30;54.00;;;;;;;5.17;73.16;101934.92;107638;1249;109837;-65
2023/04/09 05:34:29;;;;;;;84.60;52.90;;;;;;;5.18;73.53;101941.08;107902;1248;108130;-64
2023/04/09 05:36:58;;;;;;;83.00;52.20;;;;;;;5.20;73.39;101940.46;107672;1248;97915;-65
2023/04/09 05:39:27;;;;;;;87.70;53.90;;;;;;;5.23;73.25;101942.63;107763;1249;97962;-63
2023/04/09 05:41:58;;;;;;;86.10;54.20;;;;;;;5.25;73.36;101941.11;107690;1256;111294;-65
2023/04/09 05:44:26;;;;;;;80.70;52.10;;;;;;;5.31;73.21;101939.58;107701;1250;108834;-64
2023/04/09 05:47:02;;;;;;;75.60;52.30;;;;;;;5.42;73.30;101940.66;107704;1250;107682;-65
2023/04/09 05:49:36;;;;;;;81.60;52.90;;;;;;;5.50;73.12;101943.27;107718;1249;97841;-65
2023/04/09 05:52:09;;;;;;;69.80;47.40;;;;;;;5.58;72.82;101944.69;107688;1249;97798;-65
2023/04/09 05:54:38;;;;;;;72.90;47.80;;;;;;;5.68;72.58;101939.63;107753;1250;110751;-63
2023/04/09 05:57:07;;;;;;;71.90;45.80;;;;;;;5.71;72.70;101940.15;107666;1250;109528;-64
2023/04/09 05:59:38;;;;;;;74.20;45.70;;;;;;;5.84;72.89;101941.63;107699;1250;107549;-65
2023/04/09 06:02:06;;;;;;;68.70;45.10;;;;;;;5.94;72.58;101945.62;107677;1250;98561;-66
2023/04/09 06:04:35;;;;;;;68.10;46.20;;;;;;;6.05;72.75;101943.84;107702;1251;97828;-65
2023/04/09 06:07:03;;;;;;;79.10;49.20;;;;;;;6.16;72.32;101945.27;107787;1250;110864;-66
2023/04/09 06:09:32;;;;;;;71.60;45.80;;;;;;;6.22;72.12;101947.61;107710;1250;109516;-65
2023/04/09 06:12:02;;;;;;;63.10;42.20;;;;;;;6.31;71.60;101943.77;107688;1253;108776;-65
2023/04/09 06:14:31;;;;;;;63.60;43.50;;;;;;;6.35;71.17;101948.89;107698;1250;97835;-64
2023/04/09 06:17:00;;;;;;;76.10;46.40;;;;;;;6.34;71.02;101947.55;107717;1249;97818;-65
2023/04/09 06:19:29;;;;;;;70.30;44.50;;;;;;;6.38;71.16;101949.63;107690;1250;111041;-65
2023/04/09 06:21:57;;;;;;;69.30;46.00;;;;;;;6.45;70.88;101950.35;107711;1250;109648;-65
2023/04/09 06:24:26;;;;;;;67.80;44.60;;;;;;;6.53;70.84;101948.48;107623;1250;108716;-63
2023/04/09 06:26:54;;;;;;;64.80;42.60;;;;;;;6.64;70.81;101949.92;107639;1251;97809;-64
2023/04/09 06:29:22;;;;;;;67.40;43.10;;;;;;;6.67;70.23;101955.44;107674;1254;97742;-65
2023/04/09 06:31:51;;;;;;;66.30;43.00;;;;;;;6.70;70.05;101952.80;107959;1248;110925;-64
2023/04/09 06:34:20;;;;;;;67.60;43.20;;;;;;;6.75;69.80;101955.91;107910;1248;109653;-64
2023/04/09 06:36:48;;;;;;;68.30;44.30;;;;;;;6.70;69.21;101958.15;107923;1248;108285;-64
2023/04/09 06:39:17;;;;;;;65.00;43.20;;;;;;;6.63;69.15;101955.86;107943;1248;97812;-64
2023/04/09 06:41:45;;;;;;;66.50;46.80;;;;;;;6.63;69.30;101954.26;107953;1248;98359;-65
2023/04/09 06:44:36;;;;;;;69.80;46.10;;;;;;;6.73;69.83;101953.15;107712;1250;112285;-65
2023/04/09 06:47:07;;;;;;;70.20;45.00;;;;;;;6.83;69.69;101955.86;107656;1250;108693;-64
2023/04/09 06:49:37;;;;;;;68.70;46.30;;;;;;;6.90;69.32;101947.80;107726;1250;107661;-64
2023/04/09 06:52:06;;;;;;;66.20;43.90;;;;;;;6.90;68.97;101942.82;107783;1250;97964;-65
2023/04/09 06:54:34;;;;;;;70.40;46.40;;;;;;;6.87;68.62;101949.56;107751;1249;97780;-65
2023/04/09 06:57:03;;;;;;;64.00;44.00;;;;;;;6.81;68.48;101947.38;107717;1251;111847;-66
2023/04/09 06:59:32;;;;;;;66.20;41.80;;;;;;;6.89;68.69;101945.40;107761;1250;109538;-65
2023/04/09 07:02:01;;;;;;;74.20;43.60;;;;;;;6.98;68.79;101940.93;107723;1251;110651;-66
2023/04/09 07:04:30;;;;;;;69.30;46.10;;;;;;;7.13;68.74;101941.20;107682;1250;97825;-65
2023/04/09 07:06:59;;;;;;;68.10;45.00;;;;;;;7.28;68.90;101945.40;107694;1250;97711;-65
2023/04/09 07:09:27;;;;;;;72.00;44.70;;;;;;;7.40;68.68;101944.00;107718;1249;111733;-65
2023/04/09 07:11:55;;;;;;;63.80;41.70;;;;;;;7.55;68.34;101943.14;107636;1250;110665;-63
2023/04/09 07:14:24;;;;;;;62.80;41.80;;;;;;;7.70;68.37;101941.79;107642;1251;107986;-64
2023/04/09 07:16:53;;;;;;;66.80;42.70;;;;;;;7.89;67.84;101940.48;107632;1250;97721;-65
2023/04/09 07:19:21;;;;;;;60.40;40.00;;;;;;;8.00;66.77;101940.02;107754;1251;97823;-63
2023/04/09 07:21:50;;;;;;;63.50;42.50;;;;;;;7.99;65.68;101940.40;107750;1250;112298;-64
2023/04/09 07:24:18;;;;;;;58.40;39.70;;;;;;;7.96;65.41;101938.83;107848;1248;109795;-66
2023/04/09 07:26:47;;;;;;;60.80;41.60;;;;;;;7.94;64.90;101942.16;107940;1248;108076;-65
2023/04/09 07:29:19;;;;;;;60.40;42.00;;;;;;;7.93;65.09;101943.28;107620;1250;97793;-65
2023/04/09 07:31:48;;;;;;;65.60;42.90;;;;;;;8.05;65.46;101942.79;107658;1250;98398;-65
2023/04/09 07:34:16;;;;;;;68.10;41.90;;;;;;;8.18;64.63;101945.58;107789;1253;111943;-65
2023/04/09 07:36:45;;;;;;;63.60;42.80;;;;;;;8.24;64.75;101944.13;107928;1248;109193;-65
2023/04/09 07:39:13;;;;;;;61.10;42.70;;;;;;;8.33;64.35;101941.45;107895;1252;108726;-64
2023/04/09 07:41:42;;;;;;;63.60;41.40;;;;;;;8.34;63.70;101945.02;107879;1249;97786;-65
2023/04/09 07:44:11;;;;;;;65.50;42.50;;;;;;;8.42;63.74;101946.09;107807;1251;98364;-65
2023/04/09 07:46:40;;;;;;;69.50;44.60;;;;;;;8.54;63.53;101947.41;107752;1249;111083;-66
2023/04/09 07:49:09;;;;;;;61.30;40.90;;;;;;;8.58;62.87;101950.56;107787;1250;108882;-65
2023/04/09 07:51:38;;;;;;;66.10;43.20;;;;;;;8.71;63.57;101952.21;107783;1249;108741;-65
2023/04/09 07:54:07;;;;;;;56.60;40.60;;;;;;;8.90;63.42;101954.45;107814;1248;97839;-64
2023/04/09 07:56:37;;;;;;;58.50;41.00;;;;;;;9.02;62.50;101956.57;107974;1248;97828;-65
2023/04/09 07:59:05;;;;;;;59.80;39.70;;;;;;;9.02;61.84;101956.95;107195;1248;936113;-64
2023/04/09 08:01:36;;;;;;;61.10;41.40;;;;;;;9.09;61.93;101963.17;107910;1248;110152;-66
2023/04/09 08:04:05;;;;;;;59.70;41.90;;;;;;;9.04;61.37;101960.59;107920;1251;108457;-65
2023/04/09 08:06:35;;;;;;;58.20;40.90;;;;;;;9.05;61.88;101965.17;107679;1248;97809;-64
2023/04/09 08:09:04;;;;;;;54.90;39.00;;;;;;;9.23;61.72;101959.20;107930;1248;98265;-65
2023/04/09 08:11:33;;;;;;;58.70;38.60;;;;;;;9.42;61.99;101958.70;107678;1250;111946;-64
2023/04/09 08:14:01;;;;;;;55.20;38.70;;;;;;;9.58;61.04;101955.52;107782;1252;109505;-65
2023/04/09 08:16:30;;;;;;;53.50;38.90;;;;;;;9.62;60.29;101954.35;107566;1250;108764;-65
2023/04/09 08:18:59;;;;;;;60.50;41.50;;;;;;;9.65;60.33;101952.23;107825;1248;97838;-65
2023/04/09 08:21:28;;;;;;;58.30;39.60;;;;;;;9.84;60.90;101958.13;107959;1252;97819;-65
2023/04/09 08:24:00;;;;;;;53.80;38.90;;;;;;;10.07;60.28;101957.66;107881;1250;112854;-65
2023/04/09 08:26:28;;;;;;;52.30;37.50;;;;;;;10.26;59.66;101956.04;107615;1250;108690;-66
2023/04/09 08:28:56;;;;;;;52.80;38.00;;;;;;;10.35;58.49;101953.61;107697;1248;108476;-65
2023/04/09 08:31:26;;;;;;;57.40;39.10;;;;;;;10.35;58.12;101949.70;107951;1248;97902;-64
2023/04/09 08:33:55;;;;;;;49.50;37.40;;;;;;;10.30;57.76;101950.55;107925;1248;98366;-65
2023/04/09 08:36:23;;;;;;;52.90;37.60;;;;;;;10.38;58.51;101944.49;107686;1248;111218;-66
2023/04/09 08:38:54;;;;;;;53.70;36.10;;;;;;;10.58;58.57;101943.29;107911;1250;108602;-65
2023/04/09 08:41:25;;;;;;;49.60;36.30;;;;;;;10.71;57.24;101945.80;107748;1251;105790;-65
2023/04/09 08:43:56;;;;;;;57.10;36.10;;;;;;;10.85;57.55;101946.82;107702;1251;97960;-65
2023/04/09 08:46:27;;;;;;;51.00;36.80;;;;;;;11.10;57.85;101940.90;107729;1250;97738;-65
2023/04/09 08:48:56;;;;;;;50.30;35.90;;;;;;;11.29;56.54;101942.39;107722;1250;112509;-65
2023/04/09 08:51:24;;;;;;;53.50;38.00;;;;;;;11.37;56.34;101940.35;107741;1250;109537;-66
2023/04/09 08:53:57;;;;;;;50.70;37.20;;;;;;;11.56;56.70;101936.13;107717;1253;107374;-66
2023/04/09 08:56:31;;;;;;;49.70;36.20;;;;;;;11.85;56.28;101932.70;107657;1250;97854;-66
2023/04/09 08:58:59;;;;;;;51.00;37.00;;;;;;;11.99;55.52;101930.23;107777;1249;97695;-65
2023/04/09 09:01:30;;;;;;;51.00;36.30;;;;;;;12.14;55.91;101928.53;107718;1250;111759;-65
2023/04/09 09:04:01;;;;;;;53.50;37.30;;;;;;;12.33;55.54;101926.52;107727;1251;108523;-64
2023/04/09 09:06:35;;;;;;;50.60;36.30;;;;;;;12.39;54.12;101923.44;107714;1250;108415;-64
2023/04/09 09:09:03;;;;;;;52.40;37.60;;;;;;;12.38;54.48;101922.96;107748;1249;98685;-66
2023/04/09 09:11:34;;;;;;;54.10;35.20;;;;;;;12.45;54.19;101920.19;107684;1251;97786;-66
2023/04/09 09:14:10;;;;;;;41.20;32.30;;;;;;;12.59;54.33;101917.30;107828;1250;112067;-66
2023/04/09 09:17:02;;;;;;;40.80;30.60;;;;;;;12.81;53.98;101915.58;107611;1250;109677;-65
2023/04/09 09:19:32;;;;;;;41.50;30.10;;;;;;;12.99;52.17;101914.52;107635;1250;107650;-65
2023/04/09 09:22:03;;;;;;;39.20;30.10;;;;;;;12.95;50.80;101916.48;107577;1250;97855;-65
2023/04/09 09:24:32;;;;;;;39.10;28.80;;;;;;;13.02;51.52;101911.24;107684;1251;98334;-64
2023/04/09 09:27:01;;;;;;;44.20;30.60;;;;;;;13.25;51.70;101912.96;107737;1249;111563;-66
2023/04/09 09:29:30;;;;;;;38.30;28.70;;;;;;;13.79;50.61;101910.55;107786;1251;109796;-67
2023/04/09 09:31:59;;;;;;;36.00;27.50;;;;;;;14.60;50.80;101904.70;107708;1249;107810;-67
2023/04/09 09:34:27;;;;;;;37.40;27.20;;;;;;;15.67;50.35;101898.08;107670;1255;97819;-66
2023/04/09 09:36:56;;;;;;;33.60;25.80;;;;;;;16.67;47.29;101893.03;107696;1250;98347;-66
2023/04/09 09:39:42;;;;;;;32.90;25.30;;;;;;;17.39;44.11;101894.54;107666;1253;110388;-66
2023/04/09 09:42:11;;;;;;;30.70;23.00;;;;;;;18.09;42.50;101896.65;107747;1250;109578;-65
2023/04/09 09:44:40;;;;;;;32.60;24.90;;;;;;;18.57;42.05;101892.73;107732;1251;108517;-65
2023/04/09 09:47:12;;;;;;;26.50;21.10;;;;;;;19.01;41.81;101894.55;107719;1253;97697;-65
2023/04/09 09:49:40;;;;;;;24.70;19.70;;;;;;;19.48;40.37;101894.73;107719;1250;97892;-66
2023/04/09 09:52:10;;;;;;;27.90;20.80;;;;;;;19.91;38.76;101890.66;107758;1249;111769;-66
2023/04/09 09:54:46;;;;;;;24.10;19.20;;;;;;;20.17;38.69;101891.27;107671;1250;108886;-66
2023/04/09 09:57:17;;;;;;;24.80;18.70;;;;;;;20.47;36.43;101892.98;107566;1250;108713;-66
2023/04/09 10:00:00;;;;;;;27.30;19.90;;;;;;;20.22;34.03;101893.87;107675;1249;97805;-64
2023/04/09 10:02:55;;;;;;;22.80;19.30;;;;;;;19.94;36.00;101891.44;107936;1249;99011;-66
2023/04/09 10:05:26;;;;;;;26.60;20.00;;;;;;;20.42;36.59;101894.93;107941;1248;111283;-68
2023/04/09 10:07:59;;;;;;;25.00;20.20;;;;;;;20.73;34.68;101890.18;107952;1248;109680;-65
2023/04/09 10:10:29;;;;;;;26.80;18.40;;;;;;;21.16;35.33;101886.42;107668;1250;107053;-65
2023/04/09 10:12:58;;;;;;;20.80;18.00;;;;;;;21.37;34.71;101882.97;107583;1250;97809;-65
2023/04/09 10:15:28;;;;;;;24.70;17.90;;;;;;;21.39;34.81;101887.16;107597;1250;98379;-66
2023/04/09 10:17:57;;;;;;;21.50;18.10;;;;;;;21.34;34.85;101882.30;107684;1250;110938;-66
2023/04/09 10:20:31;;;;;;;22.00;18.10;;;;;;;21.32;34.11;101880.30;107603;1250;110020;-66
2023/04/09 10:23:05;;;;;;;23.50;17.50;;;;;;;21.41;33.54;101876.48;107583;1250;108852;-65
2023/04/09 10:25:33;;;;;;;;;;;;;;;21.53;33.44;101872.53;107791;1248;97839;-66
2023/04/09 10:28:02;;;;;;;17.70;15.20;;;;;;;21.84;33.44;101872.56;107917;1248;98633;-67
2023/04/09 10:30:32;;;;;;;19.50;15.60;;;;;;;22.01;32.82;101873.51;107719;1250;112221;-67
2023/04/09 10:33:15;;;;;;;19.80;16.40;;;;;;;22.04;31.89;101868.88;107617;1250;110005;-66
2023/04/09 10:35:46;;;;;;;18.70;14.90;;;;;;;21.92;32.42;101867.51;107688;1250;108590;-65
2023/04/09 10:38:15;;;;;;;19.80;16.20;;;;;;;21.82;32.35;101866.83;107703;1251;97809;-65
2023/04/09 10:40:50;;;;;;;19.10;16.90;;;;;;;21.94;32.47;101863.88;107708;1253;98289;-68
2023/04/09 10:43:21;;;;;;;22.00;15.80;;;;;;;22.26;31.91;101862.40;107743;1250;111430;-66
2023/04/09 10:45:53;;;;;;;20.60;15.90;;;;;;;22.85;31.48;101856.91;107649;1250;110284;-66
2023/04/09 10:48:24;;;;;;;17.00;14.10;;;;;;;23.51;29.91;101855.81;107652;1249;108122;-66
2023/04/09 10:50:54;;;;;;;16.30;13.60;;;;;;;24.10;29.18;101851.42;107530;1251;97778;-65
2023/04/09 10:53:26;;;;;;;16.90;13.50;;;;;;;24.82;29.47;101840.74;107637;1249;97796;-66
2023/04/09 10:55:55;;;;;;;15.30;13.00;;;;;;;25.32;28.60;101839.02;107684;1253;112773;-65
2023/04/09 10:58:23;;;;;;;14.50;13.00;;;;;;;25.60;27.62;101835.09;107705;1250;108992;-66
2023/04/09 11:00:52;;;;;;;17.20;12.70;;;;;;;25.59;27.44;101833.14;107656;1250;108509;-67
2023/04/09 11:03:24;;;;;;;15.90;11.50;;;;;;;25.76;27.37;101831.40;107697;1249;97819;-66
2023/04/09 11:06:09;;;;;;;14.40;12.40;;;;;;;25.76;27.44;101830.90;107731;1250;98283;-67
2023/04/09 11:08:38;;;;;;;13.30;11.60;;;;;;;25.98;26.54;101828.72;107668;1249;111807;-70
2023/04/09 11:11:06;;;;;;;18.70;12.40;;;;;;;25.76;26.86;101826.48;107776;1249;109815;-67
2023/04/09 11:13:35;;;;;;;14.70;11.90;;;;;;;25.50;26.56;101823.21;107579;1250;108015;-68
2023/04/09 11:16:05;;;;;;;11.60;9.50;;;;;;;25.16;26.91;101822.28;107525;1250;97921;-67
2023/04/09 11:18:35;;;;;;;11.50;10.30;;;;;;;25.07;27.14;101822.05;107770;1248;97704;-65
2023/04/09 11:21:05;;;;;;;12.80;11.50;;;;;;;24.93;26.04;101815.90;107942;1248;112182;-67